Terminal Aerodrome Forecast
Issued by NWS

Home | Current Version | Previous Version | Text Only | Print | Product List | Glossary On
Versions: 1 2 3 4 5 6 7 8 9 10 11 12
000
FTUS45 KTWC 222334
TAFOLS
TAF
KOLS 222334Z 2300/2324 22017G25KT P6SM BKN250
     FM230300 20012KT P6SM SCT090 SCT200
     FM231400 24014KT P6SM SCT050 SCT090
     FM231800 27017G25KT P6SM SCT080=

USA.gov is the U.S. government's official web portal to all federal, state and local government web resources and services.